Time;durP1;ratioP1;P1;durP2;ratioP2;P2;SDS_P1;SDS_P2;PMS_P1;PMS_P2;Temp;Humidity;BMP_temperature;BMP_pressure;BME280_temperature;BME280_humidity;BME280_pressure;Samples;Min_cycle;Max_cycle;Signal;HPM_P1;HPM_P2
2023/03/08 00:01:14;;;;;;;;;;;-0.90;99.90;;;;;;5064267;28;19924;-82
2023/03/08 00:03:39;;;;;;;;;;;-0.90;99.90;;;;;;5063636;28;19940;-81
2023/03/08 00:06:10;;;;;;;;;;;-0.90;99.90;;;;;;5066193;28;19984;-81
2023/03/08 00:08:36;;;;;;;;;;;-0.90;99.90;;;;;;5101161;28;19992;-81
2023/03/08 00:11:06;;;;;;;;;;;-0.90;99.90;;;;;;5088420;28;19982;-81
2023/03/08 00:13:31;;;;;;;;;;;-0.90;99.90;;;;;;5055454;28;19934;-81
2023/03/08 00:16:01;;;;;;;;;;;-0.90;99.90;;;;;;5070881;28;19932;-81
2023/03/08 00:18:26;;;;;;;;;;;-0.90;99.90;;;;;;5074378;28;19929;-81
2023/03/08 00:21:03;;;;;;;;;;;-0.90;99.90;;;;;;5063776;28;20486;-81
2023/03/08 00:23:28;;;;;;;;;;;-0.90;99.90;;;;;;5065887;28;20687;-81
2023/03/08 00:25:54;;;;;;;;;;;-1.00;99.90;;;;;;5057255;28;20098;-81
2023/03/08 00:28:20;;;;;;;;;;;-1.00;99.90;;;;;;5055219;28;19932;-80
2023/03/08 00:30:53;;;;;;;;;;;-1.00;99.90;;;;;;5099363;28;19935;-81
2023/03/08 00:33:19;;;;;;;;;;;-1.00;99.90;;;;;;5090118;28;20524;-81
2023/03/08 00:35:52;;;;;;;;;;;-1.00;99.90;;;;;;5055496;28;19924;-81
2023/03/08 00:38:18;;;;;;;;;;;-1.00;99.90;;;;;;5094241;28;19947;-80
2023/03/08 00:40:44;;;;;;;;;;;-1.00;99.90;;;;;;5070464;28;20382;-80
2023/03/08 00:43:09;;;;;;;;;;;-1.00;99.90;;;;;;5078895;28;19958;-80
2023/03/08 00:45:35;;;;;;;;;;;-1.00;99.90;;;;;;5071415;28;19994;-81
2023/03/08 00:48:00;;;;;;;;;;;-0.90;99.90;;;;;;5077963;28;19924;-81
2023/03/08 00:50:26;;;;;;;;;;;-0.80;99.90;;;;;;5087040;28;20018;-81
2023/03/08 00:52:51;;;;;;;;;;;-0.80;99.90;;;;;;5073731;28;19955;-81
2023/03/08 00:55:17;;;;;;;;;;;-0.80;99.90;;;;;;5066197;28;19936;-80
2023/03/08 00:57:43;;;;;;;;;;;-0.80;99.90;;;;;;5089198;28;19924;-81
2023/03/08 01:00:11;;;;;;;;;;;-0.80;99.90;;;;;;5057446;28;19925;-81
2023/03/08 01:02:39;;;;;;;;;;;-0.90;99.90;;;;;;5052702;28;19975;-81
2023/03/08 01:05:06;;;;;;;;;;;-0.90;99.90;;;;;;5069777;28;20404;-81
2023/03/08 01:07:31;;;;;;;;;;;-0.90;99.90;;;;;;5064747;28;19943;-80
2023/03/08 01:09:57;;;;;;;;;;;-0.90;99.90;;;;;;5074239;28;19932;-81
2023/03/08 01:12:24;;;;;;;;;;;-0.90;99.90;;;;;;5071239;28;19924;-81
2023/03/08 01:14:52;;;;;;;;;;;-0.90;99.90;;;;;;5065191;28;19932;-81
2023/03/08 01:17:18;;;;;;;;;;;-0.90;99.90;;;;;;5083783;28;19932;-80
2023/03/08 01:19:44;;;;;;;;;;;-1.00;99.90;;;;;;5097267;28;19928;-82
2023/03/08 01:22:12;;;;;;;;;;;-1.00;99.90;;;;;;5063658;28;21704;-81
2023/03/08 01:24:46;;;;;;;;;;;-1.00;99.90;;;;;;5064579;28;19928;-81
2023/03/08 01:27:12;;;;;;;;;;;-1.10;99.90;;;;;;5077818;28;19963;-81
2023/03/08 01:30:02;;;;;;;;;;;-1.10;99.90;;;;;;5051367;28;19981;-81
2023/03/08 01:32:28;;;;;;;;;;;-1.10;99.90;;;;;;5081716;28;19935;-81
2023/03/08 01:34:54;;;;;;;;;;;-1.10;99.90;;;;;;5081356;28;20345;-81
2023/03/08 01:37:19;;;;;;;;;;;-1.10;99.90;;;;;;5062877;28;19928;-80
2023/03/08 01:39:45;;;;;;;;;;;-1.20;99.90;;;;;;5076328;28;20429;-81
2023/03/08 01:42:11;;;;;;;;;;;-1.20;99.90;;;;;;5072208;28;19924;-80
2023/03/08 01:44:52;;;;;;;;;;;-1.20;99.90;;;;;;5065817;28;19931;-81
2023/03/08 01:47:19;;;;;;;;;;;-1.20;99.90;;;;;;5073655;28;19929;-81
2023/03/08 01:49:44;;;;;;;;;;;-1.20;99.90;;;;;;5061054;28;19967;-81
2023/03/08 01:52:13;;;;;;;;;;;-1.20;99.90;;;;;;5076521;28;19939;-81
2023/03/08 01:54:39;;;;;;;;;;;-1.20;99.90;;;;;;5114603;27;20006;-81
2023/03/08 01:57:07;;;;;;;;;;;-1.30;99.90;;;;;;5068966;28;19924;-81
2023/03/08 01:59:33;;;;;;;;;;;-1.20;99.90;;;;;;5065615;28;19982;-80
2023/03/08 02:01:59;;;;;;;;;;;-1.30;99.90;;;;;;5087477;28;19934;-81
2023/03/08 02:04:25;;;;;;;;;;;-1.30;99.90;;;;;;5065301;28;19963;-80
2023/03/08 02:06:50;;;;;;;;;;;-1.30;99.90;;;;;;5070592;28;19924;-80
2023/03/08 02:09:16;;;;;;;;;;;-1.30;99.90;;;;;;5075553;28;19969;-81
2023/03/08 02:11:42;;;;;;;;;;;-1.30;99.90;;;;;;5068726;28;19932;-81
2023/03/08 02:14:08;;;;;;;;;;;-1.40;99.90;;;;;;5060829;28;19924;-81
2023/03/08 02:16:33;;;;;;;;;;;-1.40;99.90;;;;;;5067207;28;19931;-80
2023/03/08 02:19:01;;;;;;;;;;;-1.40;99.90;;;;;;5059099;28;19931;-81
2023/03/08 02:21:27;;;;;;;;;;;-1.50;99.90;;;;;;5069256;28;19931;-80
2023/03/08 02:23:53;;;;;;;;;;;-1.50;99.90;;;;;;5060985;28;19977;-81
2023/03/08 02:26:19;;;;;;;;;;;-1.50;99.90;;;;;;5083287;28;19928;-81
2023/03/08 02:28:45;;;;;;;;;;;-1.60;99.90;;;;;;5059804;28;20363;-80
2023/03/08 02:31:11;;;;;;;;;;;-1.60;99.90;;;;;;5073234;28;19925;-81
2023/03/08 02:33:37;;;;;;;;;;;-1.60;99.90;;;;;;5071932;28;19924;-81
2023/03/08 02:36:03;;;;;;;;;;;-1.60;99.90;;;;;;5058111;28;20100;-81
2023/03/08 02:38:29;;;;;;;;;;;-1.60;99.90;;;;;;5055198;28;19998;-80
2023/03/08 02:40:55;;;;;;;;;;;-1.60;99.90;;;;;;5060445;28;20397;-81
2023/03/08 02:43:21;;;;;;;;;;;-1.70;99.90;;;;;;5061848;28;19928;-80
2023/03/08 02:45:46;;;;;;;;;;;-1.60;99.90;;;;;;5071241;28;19928;-80
2023/03/08 02:48:13;;;;;;;;;;;-1.60;99.90;;;;;;5080896;28;19938;-80
2023/03/08 02:50:38;;;;;;;;;;;-1.60;99.90;;;;;;5089151;28;19924;-81
2023/03/08 02:53:04;;;;;;;;;;;-1.50;99.90;;;;;;5052976;28;19939;-80
2023/03/08 02:55:29;;;;;;;;;;;-1.50;99.90;;;;;;5057247;28;20043;-80
2023/03/08 02:57:55;;;;;;;;;;;-1.40;99.90;;;;;;5070188;28;19963;-80
2023/03/08 03:00:21;;;;;;;;;;;-1.50;99.90;;;;;;5059486;28;19986;-80
2023/03/08 03:02:46;;;;;;;;;;;-1.50;99.90;;;;;;5069794;28;19939;-80
2023/03/08 03:05:12;;;;;;;;;;;-1.50;99.90;;;;;;5068573;28;19952;-80
2023/03/08 03:07:39;;;;;;;;;;;-1.50;99.90;;;;;;5054413;28;19935;-81
2023/03/08 03:10:04;;;;;;;;;;;-1.50;99.90;;;;;;5056099;28;20387;-81
2023/03/08 03:12:30;;;;;;;;;;;-1.50;99.90;;;;;;5084718;28;19932;-81
2023/03/08 03:14:56;;;;;;;;;;;-1.50;99.90;;;;;;5086076;28;19923;-80
2023/03/08 03:17:22;;;;;;;;;;;-1.50;99.90;;;;;;5070518;28;19924;-80
2023/03/08 03:19:47;;;;;;;;;;;-1.50;99.90;;;;;;5077598;28;20318;-80
2023/03/08 03:22:13;;;;;;;;;;;-1.60;99.90;;;;;;5079813;28;19980;-80
2023/03/08 03:24:38;;;;;;;;;;;-1.60;99.90;;;;;;5078288;28;19924;-81
2023/03/08 03:27:04;;;;;;;;;;;-1.60;99.90;;;;;;5063717;28;19928;-80
2023/03/08 03:29:30;;;;;;;;;;;-1.60;99.90;;;;;;5078449;28;19928;-80
2023/03/08 03:31:55;;;;;;;;;;;-1.60;99.90;;;;;;5099444;28;19968;-81
2023/03/08 03:34:21;;;;;;;;;;;-1.60;99.90;;;;;;5080393;28;19977;-80
2023/03/08 03:36:46;;;;;;;;;;;-1.50;99.90;;;;;;5084210;28;19928;-80
2023/03/08 03:39:12;;;;;;;;;;;-1.60;99.90;;;;;;5080399;28;19928;-81
2023/03/08 03:41:38;;;;;;;;;;;-1.60;99.90;;;;;;5059072;28;19928;-80
2023/03/08 03:44:03;;;;;;;;;;;-1.60;99.90;;;;;;5065711;28;19931;-80
2023/03/08 03:46:29;;;;;;;;;;;-1.70;99.90;;;;;;5067466;28;19976;-80
2023/03/08 03:48:54;;;;;;;;;;;-1.60;99.90;;;;;;5067391;28;19929;-81
2023/03/08 03:51:21;;;;;;;;;;;-1.70;99.90;;;;;;5055056;28;19928;-80
2023/03/08 03:53:47;;;;;;;;;;;-1.70;99.90;;;;;;5056848;28;19980;-81
2023/03/08 03:56:14;;;;;;;;;;;-1.70;99.90;;;;;;5065997;28;19929;-80
2023/03/08 03:58:40;;;;;;;;;;;-1.70;99.90;;;;;;5068694;28;19929;-80
2023/03/08 04:01:10;;;;;;;;;;;-1.70;99.90;;;;;;5072450;28;19924;-80
2023/03/08 04:03:36;;;;;;;;;;;-1.70;99.90;;;;;;5059793;28;19931;-81
2023/03/08 04:06:21;;;;;;;;;;;-1.70;99.90;;;;;;5112026;27;19963;-80
2023/03/08 04:08:47;;;;;;;;;;;-1.60;99.90;;;;;;5067350;28;19928;-80
2023/03/08 04:11:14;;;;;;;;;;;-1.50;99.90;;;;;;5074576;28;19935;-80
2023/03/08 04:13:39;;;;;;;;;;;-1.50;99.90;;;;;;5064263;28;19936;-80
2023/03/08 04:16:12;;;;;;;;;;;-1.50;99.90;;;;;;5055447;28;19978;-80
2023/03/08 04:18:38;;;;;;;;;;;-1.50;99.90;;;;;;5089308;28;19932;-80
2023/03/08 04:21:03;;;;;;;;;;;-1.50;99.90;;;;;;5062435;28;19928;-80
2023/03/08 04:23:29;;;;;;;;;;;-1.60;99.90;;;;;;5072364;28;19930;-80
2023/03/08 04:25:55;;;;;;;;;;;-1.50;99.90;;;;;;5060687;28;19924;-80
2023/03/08 04:28:20;;;;;;;;;;;-1.50;99.90;;;;;;5053889;28;19924;-80
2023/03/08 04:30:46;;;;;;;;;;;-1.50;99.90;;;;;;5059555;28;20012;-80
2023/03/08 04:33:11;;;;;;;;;;;-1.40;99.90;;;;;;5082893;28;20005;-80
2023/03/08 04:35:37;;;;;;;;;;;-1.50;99.90;;;;;;5061795;28;19935;-80
2023/03/08 04:38:02;;;;;;;;;;;-1.60;99.90;;;;;;5055338;28;19931;-80
2023/03/08 04:40:28;;;;;;;;;;;-1.50;99.90;;;;;;5063978;28;19989;-80
2023/03/08 04:42:54;;;;;;;;;;;-1.60;99.90;;;;;;5058133;28;19924;-80
2023/03/08 04:45:20;;;;;;;;;;;-1.60;99.90;;;;;;5058127;28;19928;-80
2023/03/08 04:47:46;;;;;;;;;;;-1.60;99.90;;;;;;5081362;28;19924;-80
2023/03/08 04:50:11;;;;;;;;;;;-1.70;99.90;;;;;;5078081;28;19961;-80
2023/03/08 04:52:37;;;;;;;;;;;-1.80;99.90;;;;;;5052837;28;19936;-80
2023/03/08 04:55:03;;;;;;;;;;;-1.80;99.90;;;;;;5107077;28;19928;-80
2023/03/08 04:57:28;;;;;;;;;;;-1.80;99.90;;;;;;5107417;28;19960;-80
2023/03/08 04:59:54;;;;;;;;;;;-1.80;99.90;;;;;;5072808;28;19924;-80
2023/03/08 05:02:20;;;;;;;;;;;-1.90;99.90;;;;;;5053002;28;19966;-80
2023/03/08 05:04:46;;;;;;;;;;;-1.80;99.90;;;;;;5066926;28;20256;-80
2023/03/08 05:07:11;;;;;;;;;;;-1.90;99.90;;;;;;5060640;28;19928;-80
2023/03/08 05:09:37;;;;;;;;;;;-1.90;99.90;;;;;;5074684;28;19932;-80
2023/03/08 05:12:03;;;;;;;;;;;-1.90;99.90;;;;;;5065174;28;19986;-80
2023/03/08 05:14:28;;;;;;;;;;;-1.90;99.90;;;;;;5060385;28;19975;-80
2023/03/08 05:16:55;;;;;;;;;;;-1.80;99.90;;;;;;5098970;28;19924;-80
2023/03/08 05:19:21;;;;;;;;;;;-1.90;99.90;;;;;;5090284;28;19928;-80
2023/03/08 05:21:46;;;;;;;;;;;-2.00;99.90;;;;;;5061034;28;19977;-80
2023/03/08 05:24:12;;;;;;;;;;;-1.90;99.90;;;;;;5076197;28;19924;-80
2023/03/08 05:26:38;;;;;;;;;;;-1.90;99.90;;;;;;5105072;28;20989;-80
2023/03/08 05:29:05;;;;;;;;;;;-1.80;99.90;;;;;;5069370;28;19931;-80
2023/03/08 05:31:31;;;;;;;;;;;-1.80;99.90;;;;;;5072680;28;19928;-80
2023/03/08 05:33:56;;;;;;;;;;;-1.90;99.90;;;;;;5078006;28;20001;-80
2023/03/08 05:36:22;;;;;;;;;;;-1.90;99.90;;;;;;5061327;28;20122;-80
2023/03/08 05:38:51;;;;;;;;;;;-1.90;99.90;;;;;;5062043;28;19988;-80
2023/03/08 05:41:16;;;;;;;;;;;-1.80;99.90;;;;;;5066243;28;19928;-80
2023/03/08 05:43:42;;;;;;;;;;;-1.80;99.90;;;;;;5056467;28;19967;-80
2023/03/08 05:46:12;;;;;;;;;;;-1.80;99.90;;;;;;5067208;28;19924;-80
2023/03/08 05:48:38;;;;;;;;;;;-1.70;99.90;;;;;;5062748;28;19951;-80
2023/03/08 05:51:04;;;;;;;;;;;-1.70;99.90;;;;;;5057093;28;19925;-80
2023/03/08 05:53:30;;;;;;;;;;;-1.70;99.90;;;;;;5063726;28;20054;-80
2023/03/08 05:55:55;;;;;;;;;;;-1.60;99.90;;;;;;5068071;28;19962;-80
2023/03/08 05:58:21;;;;;;;;;;;-1.70;99.90;;;;;;5066391;28;19928;-80
2023/03/08 06:00:47;;;;;;;;;;;-1.70;99.90;;;;;;5060367;28;20299;-80
2023/03/08 06:03:12;;;;;;;;;;;-1.60;99.90;;;;;;5063599;28;19924;-80
2023/03/08 06:05:38;;;;;;;;;;;-1.60;99.90;;;;;;5064536;28;19925;-80
2023/03/08 06:08:03;;;;;;;;;;;-1.60;99.90;;;;;;5062452;28;19971;-80
2023/03/08 06:10:29;;;;;;;;;;;-1.60;99.90;;;;;;5073733;28;19989;-80
2023/03/08 06:12:55;;;;;;;;;;;-1.60;99.90;;;;;;5059966;28;19925;-80
2023/03/08 06:15:20;;;;;;;;;;;-1.70;99.90;;;;;;5054758;28;19931;-80
2023/03/08 06:17:46;;;;;;;;;;;-1.70;99.90;;;;;;5058284;28;19932;-80
2023/03/08 06:20:12;;;;;;;;;;;-1.70;99.90;;;;;;5064972;28;20530;-80
2023/03/08 06:22:37;;;;;;;;;;;-1.70;99.90;;;;;;5092332;28;19924;-80
2023/03/08 06:25:03;;;;;;;;;;;-1.70;99.90;;;;;;5068197;28;19924;-80
2023/03/08 06:27:28;;;;;;;;;;;-1.70;99.90;;;;;;5061781;28;19924;-80
2023/03/08 06:29:54;;;;;;;;;;;-1.70;99.90;;;;;;5065411;28;19924;-80
2023/03/08 06:32:20;;;;;;;;;;;-1.60;99.90;;;;;;5088285;28;19927;-80
2023/03/08 06:34:46;;;;;;;;;;;-1.60;99.90;;;;;;5098880;28;19924;-80
2023/03/08 06:37:12;;;;;;;;;;;-1.60;99.90;;;;;;5056139;28;19928;-80
2023/03/08 06:39:38;;;;;;;;;;;-1.60;99.90;;;;;;5066532;28;19928;-80
2023/03/08 06:42:03;;;;;;;;;;;-1.70;99.90;;;;;;5063281;28;19924;-80
2023/03/08 06:44:29;;;;;;;;;;;-1.70;99.90;;;;;;5067334;28;19925;-80
2023/03/08 06:46:55;;;;;;;;;;;-1.70;99.90;;;;;;5080226;28;19924;-79
2023/03/08 06:49:21;;;;;;;;;;;-1.70;99.90;;;;;;5070235;28;19952;-80
2023/03/08 06:51:46;;;;;;;;;;;-1.60;99.90;;;;;;5060167;28;19935;-80
2023/03/08 06:54:16;;;;;;;;;;;-1.60;99.90;;;;;;5055745;28;19924;-80
2023/03/08 06:56:45;;;;;;;;;;;-1.50;99.90;;;;;;5069561;28;20018;-80
2023/03/08 06:59:11;;;;;;;;;;;-1.50;99.90;;;;;;5083659;28;19924;-80
2023/03/08 07:01:37;;;;;;;;;;;-1.50;99.90;;;;;;5066727;28;19924;-80
2023/03/08 07:04:02;;;;;;;;;;;-1.40;99.90;;;;;;5065255;28;19924;-80
2023/03/08 07:06:28;;;;;;;;;;;-1.40;99.90;;;;;;5057748;28;20587;-80
2023/03/08 07:08:54;;;;;;;;;;;-1.30;99.90;;;;;;5097261;28;19956;-80
2023/03/08 07:11:19;;;;;;;;;;;-1.10;99.90;;;;;;5078563;28;20009;-80
2023/03/08 07:13:45;;;;;;;;;;;-1.10;99.90;;;;;;5080216;28;19931;-80
2023/03/08 07:16:11;;;;;;;;;;;-1.10;99.90;;;;;;5059020;28;19929;-80
2023/03/08 07:18:37;;;;;;;;;;;-1.10;99.90;;;;;;5062253;28;19932;-80
2023/03/08 07:21:02;;;;;;;;;;;-1.10;99.90;;;;;;5067286;28;19977;-80
2023/03/08 07:23:28;;;;;;;;;;;-1.00;99.90;;;;;;5108049;27;19974;-80
2023/03/08 07:25:54;;;;;;;;;;;-1.00;99.90;;;;;;5068145;28;19924;-80
2023/03/08 07:28:19;;;;;;;;;;;-0.90;99.90;;;;;;5055296;28;19927;-80
2023/03/08 07:30:46;;;;;;;;;;;-0.90;99.90;;;;;;5062972;28;19997;-80
2023/03/08 07:33:12;;;;;;;;;;;-0.90;99.90;;;;;;5069983;28;19931;-80
2023/03/08 07:35:37;;;;;;;;;;;-0.80;99.90;;;;;;5075911;28;20003;-80
2023/03/08 07:38:03;;;;;;;;;;;-0.80;99.90;;;;;;5066427;28;19924;-80
2023/03/08 07:40:28;;;;;;;;;;;-0.80;99.90;;;;;;5092471;28;19931;-80
2023/03/08 07:42:54;;;;;;;;;;;-0.80;99.90;;;;;;5078718;28;19991;-80
2023/03/08 07:45:20;;;;;;;;;;;-0.90;99.90;;;;;;5054644;28;20037;-80
2023/03/08 07:47:48;;;;;;;;;;;-0.90;99.90;;;;;;5094292;28;19963;-81
2023/03/08 07:50:14;;;;;;;;;;;-0.90;99.90;;;;;;5082125;28;19924;-80
2023/03/08 07:52:39;;;;;;;;;;;-0.90;99.90;;;;;;5063537;28;20472;-80
2023/03/08 07:55:05;;;;;;;;;;;-0.80;99.90;;;;;;5065627;28;19928;-80
2023/03/08 07:57:31;;;;;;;;;;;-0.80;99.90;;;;;;5109472;27;19924;-80
2023/03/08 07:59:56;;;;;;;;;;;-0.90;99.90;;;;;;5077790;28;19924;-80
2023/03/08 08:02:22;;;;;;;;;;;-0.80;99.90;;;;;;5055860;28;19924;-80
2023/03/08 08:04:49;;;;;;;;;;;-0.80;99.90;;;;;;5096587;28;19932;-80
2023/03/08 08:07:15;;;;;;;;;;;-0.80;99.90;;;;;;5066444;28;19928;-80
2023/03/08 08:09:41;;;;;;;;;;;-0.80;99.90;;;;;;5087442;28;20495;-81
2023/03/08 08:12:06;;;;;;;;;;;-0.80;99.90;;;;;;5048189;28;19987;-80
2023/03/08 08:14:32;;;;;;;;;;;-0.80;99.90;;;;;;5063267;28;19931;-80
2023/03/08 08:16:58;;;;;;;;;;;-0.80;99.90;;;;;;5058071;28;20405;-80
2023/03/08 08:19:24;;;;;;;;;;;-0.80;99.90;;;;;;5081345;28;19932;-81
2023/03/08 08:21:49;;;;;;;;;;;-0.80;99.90;;;;;;5093459;28;19931;-81
2023/03/08 08:24:15;;;;;;;;;;;-0.80;99.90;;;;;;5074623;28;20003;-81
2023/03/08 08:26:41;;;;;;;;;;;-0.80;99.90;;;;;;5051331;28;20703;-81
2023/03/08 08:29:06;;;;;;;;;;;-0.80;99.90;;;;;;5067412;28;19924;-81
2023/03/08 08:31:32;;;;;;;;;;;-0.80;99.90;;;;;;5072515;28;20292;-81
2023/03/08 08:33:58;;;;;;;;;;;-0.60;99.90;;;;;;5073629;28;19932;-81
2023/03/08 08:36:24;;;;;;;;;;;-0.70;99.90;;;;;;5066093;28;19928;-81
2023/03/08 08:38:50;;;;;;;;;;;-0.60;99.90;;;;;;5114528;27;20031;-81
2023/03/08 08:41:17;;;;;;;;;;;-0.70;99.90;;;;;;5095522;28;19924;-81
2023/03/08 08:43:44;;;;;;;;;;;-0.60;99.90;;;;;;5089950;28;19924;-81
2023/03/08 08:46:09;;;;;;;;;;;-0.60;99.90;;;;;;5117743;27;21231;-81
2023/03/08 08:48:37;;;;;;;;;;;-0.60;99.90;;;;;;5065939;28;21439;-81
2023/03/08 08:51:03;;;;;;;;;;;-0.50;99.90;;;;;;5067734;28;20386;-81
2023/03/08 08:53:28;;;;;;;;;;;-0.50;99.90;;;;;;5066822;28;19925;-82
2023/03/08 08:55:54;;;;;;;;;;;-0.40;99.90;;;;;;5081767;28;20379;-82
2023/03/08 08:58:20;;;;;;;;;;;-0.40;99.90;;;;;;5049968;28;19996;-82
2023/03/08 09:00:45;;;;;;;;;;;-0.30;99.90;;;;;;5048854;28;19932;-82
2023/03/08 09:03:11;;;;;;;;;;;-0.20;99.90;;;;;;5048634;28;19931;-82
2023/03/08 09:05:37;;;;;;;;;;;-0.20;99.90;;;;;;5052417;28;19947;-82
2023/03/08 09:08:03;;;;;;;;;;;-0.20;99.90;;;;;;5066477;28;19975;-82
2023/03/08 09:10:30;;;;;;;;;;;-0.20;99.90;;;;;;5053854;28;19940;-81
2023/03/08 09:12:57;;;;;;;;;;;-0.20;99.90;;;;;;5074063;28;19928;-82
2023/03/08 09:15:23;;;;;;;;;;;-0.10;99.90;;;;;;5061485;28;19928;-83
2023/03/08 09:17:49;;;;;;;;;;;-0.10;99.90;;;;;;5072403;28;20045;-83
2023/03/08 09:20:15;;;;;;;;;;;-0.10;99.90;;;;;;5055351;28;19973;-82
2023/03/08 09:22:40;;;;;;;;;;;-0.10;99.90;;;;;;5062055;28;19928;-82
2023/03/08 09:25:06;;;;;;;;;;;0.00;99.90;;;;;;5099041;28;19928;-82
2023/03/08 09:27:32;;;;;;;;;;;0.00;99.90;;;;;;5070260;28;19946;-83
2023/03/08 09:29:58;;;;;;;;;;;0.10;99.90;;;;;;5064770;28;19925;-83
2023/03/08 09:32:24;;;;;;;;;;;0.20;99.90;;;;;;5081030;28;19932;-83
2023/03/08 09:34:50;;;;;;;;;;;0.20;99.90;;;;;;5065803;28;19949;-83
2023/03/08 09:37:16;;;;;;;;;;;0.20;99.90;;;;;;5063875;28;19925;-83
2023/03/08 09:39:42;;;;;;;;;;;0.30;99.90;;;;;;5065655;28;20011;-83
2023/03/08 09:42:19;;;;;;;;;;;0.30;99.90;;;;;;5055937;28;19924;-83
2023/03/08 09:45:07;;;;;;;;;;;0.40;99.90;;;;;;5075815;28;19928;-84
2023/03/08 09:47:58;;;;;;;;;;;0.50;99.90;;;;;;5080647;28;19932;-84
2023/03/08 09:50:24;;;;;;;;;;;0.60;99.90;;;;;;5070340;28;20383;-83
2023/03/08 09:53:03;;;;;;;;;;;0.80;99.90;;;;;;5073259;28;19939;-83
2023/03/08 09:55:33;;;;;;;;;;;0.80;99.90;;;;;;5088070;28;19924;-83
2023/03/08 09:58:01;;;;;;;;;;;0.90;99.90;;;;;;5100853;28;19982;-83
2023/03/08 10:00:31;;;;;;;;;;;1.10;99.90;;;;;;5085476;28;19928;-83
2023/03/08 10:03:15;;;;;;;;;;;1.10;99.90;;;;;;5079395;28;19924;-83
2023/03/08 10:05:44;;;;;;;;;;;1.20;99.90;;;;;;5077174;28;19928;-83
2023/03/08 10:08:16;;;;;;;;;;;1.30;99.90;;;;;;5070278;28;19928;-83
2023/03/08 10:11:02;;;;;;;;;;;1.30;99.90;;;;;;5076994;28;19931;-83
2023/03/08 10:13:29;;;;;;;;;;;1.30;99.90;;;;;;5106967;28;19997;-83
2023/03/08 10:16:00;;;;;;;;;;;1.40;99.90;;;;;;5079139;28;19932;-83
2023/03/08 10:18:32;;;;;;;;;;;1.50;99.90;;;;;;5068373;28;20027;-83
2023/03/08 10:20:59;;;;;;;;;;;1.70;99.90;;;;;;5101325;28;20012;-83
2023/03/08 10:23:27;;;;;;;;;;;1.70;99.90;;;;;;5068667;28;19983;-83
2023/03/08 10:25:52;;;;;;;;;;;1.70;99.90;;;;;;5074738;28;19997;-83
2023/03/08 10:28:19;;;;;;;;;;;1.70;99.90;;;;;;5054930;28;19941;-84
2023/03/08 10:30:46;;;;;;;;;;;1.70;99.90;;;;;;5070791;28;20444;-84
2023/03/08 10:33:13;;;;;;;;;;;1.70;99.90;;;;;;5098388;28;19937;-83
2023/03/08 10:35:58;;;;;;;;;;;1.70;99.90;;;;;;5059133;28;19960;-84
2023/03/08 10:38:25;;;;;;;;;;;1.90;99.90;;;;;;5093588;28;19932;-84
2023/03/08 10:40:58;;;;;;;;;;;2.00;99.90;;;;;;5072006;28;19963;-70
2023/03/08 10:43:28;;;;;;;;;;;2.00;99.90;;;;;;5088426;28;19931;-72
2023/03/08 10:46:01;;;;;;;;;;;2.10;99.90;;;;;;5080310;28;19925;-71
2023/03/08 10:48:27;;;;;;;;;;;2.20;99.90;;;;;;5065754;28;19924;-71
2023/03/08 10:51:04;;;;;;;;;;;2.20;99.90;;;;;;5069323;28;19932;-71
2023/03/08 10:53:30;;;;;;;;;;;2.30;99.90;;;;;;5064533;28;19928;-71
2023/03/08 10:55:57;;;;;;;;;;;2.30;99.90;;;;;;5066286;28;19932;-71
2023/03/08 10:58:33;;;;;;;;;;;2.30;99.90;;;;;;5082324;28;19950;-71
2023/03/08 11:01:02;;;;;;;;;;;2.30;99.90;;;;;;5062508;28;20184;-71
2023/03/08 11:03:27;;;;;;;;;;;2.40;99.90;;;;;;5068063;28;19930;-71
2023/03/08 11:06:02;;;;;;;;;;;2.50;99.90;;;;;;5078270;28;19980;-71
2023/03/08 11:08:31;;;;;;;;;;;2.70;99.90;;;;;;5074267;28;19924;-71
2023/03/08 11:11:00;;;;;;;;;;;2.70;99.90;;;;;;5072815;28;19973;-71
2023/03/08 11:13:33;;;;;;;;;;;2.80;99.90;;;;;;5085526;28;19928;-71
2023/03/08 11:16:22;;;;;;;;;;;2.80;99.90;;;;;;5068647;28;19928;-71
2023/03/08 11:18:48;;;;;;;;;;;2.90;99.90;;;;;;5059006;28;19942;-71
2023/03/08 11:21:21;;;;;;;;;;;2.90;99.90;;;;;;5089769;28;19925;-71
2023/03/08 11:23:47;;;;;;;;;;;2.90;99.90;;;;;;5082097;28;19928;-71
2023/03/08 11:26:17;;;;;;;;;;;2.90;99.90;;;;;;5068961;28;19947;-72
2023/03/08 11:28:52;;;;;;;;;;;2.90;99.90;;;;;;5096567;28;19932;-71
2023/03/08 11:31:26;;;;;;;;;;;3.00;99.90;;;;;;5122597;27;20342;-71
2023/03/08 11:34:12;;;;;;;;;;;3.00;99.90;;;;;;5083202;28;20065;-71
2023/03/08 11:36:49;;;;;;;;;;;3.10;99.90;;;;;;5060640;28;19934;-84
2023/03/08 11:39:30;;;;;;;;;;;3.10;99.90;;;;;;5084429;28;20245;-83
2023/03/08 11:41:55;;;;;;;;;;;3.10;99.90;;;;;;5072344;28;20278;-82
2023/03/08 11:44:30;;;;;;;;;;;3.20;99.90;;;;;;5071891;28;19959;-83
2023/03/08 11:46:59;;;;;;;;;;;3.30;99.90;;;;;;5086474;28;19924;-83
2023/03/08 11:49:31;;;;;;;;;;;3.40;99.90;;;;;;5066107;28;19931;-83
2023/03/08 11:52:06;;;;;;;;;;;3.50;99.90;;;;;;5070462;28;20151;-83
2023/03/08 11:54:58;;;;;;;;;;;3.50;99.90;;;;;;5070145;28;19928;-83
2023/03/08 11:57:24;;;;;;;;;;;3.50;99.90;;;;;;5092431;28;19939;-83
2023/03/08 11:59:55;;;;;;;;;;;3.50;99.90;;;;;;5071842;28;19938;-84
2023/03/08 12:02:28;;;;;;;;;;;3.50;99.90;;;;;;5068026;28;19928;-82
2023/03/08 12:04:56;;;;;;;;;;;3.50;99.90;;;;;;5086356;28;19946;-83
2023/03/08 12:07:26;;;;;;;;;;;3.50;99.90;;;;;;5095391;28;19924;-83
2023/03/08 12:09:55;;;;;;;;;;;3.40;99.90;;;;;;5070178;28;19957;-83
2023/03/08 12:12:27;;;;;;;;;;;3.40;99.90;;;;;;5070424;28;19932;-82
2023/03/08 12:14:59;;;;;;;;;;;3.50;99.90;;;;;;5068133;28;19982;-83
2023/03/08 12:17:27;;;;;;;;;;;3.40;99.90;;;;;;5102637;28;19924;-83
2023/03/08 12:19:53;;;;;;;;;;;3.40;99.90;;;;;;5077605;28;19950;-82
2023/03/08 12:22:21;;;;;;;;;;;3.30;99.90;;;;;;5067290;28;19927;-83
2023/03/08 12:24:47;;;;;;;;;;;3.30;99.90;;;;;;5070785;28;19945;-82
2023/03/08 12:27:25;;;;;;;;;;;3.40;99.90;;;;;;5087389;28;19924;-83
2023/03/08 12:29:57;;;;;;;;;;;3.40;99.90;;;;;;5113840;27;19963;-84
2023/03/08 12:32:24;;;;;;;;;;;3.40;99.90;;;;;;5073572;28;19935;-83
2023/03/08 12:35:00;;;;;;;;;;;3.40;99.90;;;;;;5077028;28;19924;-83
2023/03/08 12:37:27;;;;;;;;;;;3.40;99.90;;;;;;5093997;28;19930;-83
2023/03/08 12:40:13;;;;;;;;;;;3.50;99.90;;;;;;5091941;28;19967;-83
2023/03/08 12:42:39;;;;;;;;;;;3.50;99.90;;;;;;5089308;28;19962;-84
2023/03/08 12:45:06;;;;;;;;;;;3.50;99.90;;;;;;5104642;28;19924;-83
2023/03/08 12:47:32;;;;;;;;;;;3.60;99.90;;;;;;5070950;28;19924;-83
2023/03/08 12:50:05;;;;;;;;;;;3.60;99.90;;;;;;5076071;28;19966;-83
2023/03/08 12:52:33;;;;;;;;;;;3.70;99.90;;;;;;5078635;28;19935;-84
2023/03/08 12:54:59;;;;;;;;;;;3.70;99.90;;;;;;5077354;28;20006;-84
2023/03/08 12:57:48;;;;;;;;;;;3.80;99.90;;;;;;5072277;28;20508;-83
2023/03/08 13:00:24;;;;;;;;;;;3.80;99.90;;;;;;5087616;28;19924;-84
2023/03/08 13:02:59;;;;;;;;;;;3.80;99.90;;;;;;5082827;28;20005;-83
2023/03/08 13:05:30;;;;;;;;;;;3.80;99.90;;;;;;5100777;28;19927;-83
2023/03/08 13:08:01;;;;;;;;;;;3.90;99.90;;;;;;5080136;28;19962;-83
2023/03/08 13:10:32;;;;;;;;;;;3.90;99.90;;;;;;5081475;28;19931;-84
2023/03/08 13:13:10;;;;;;;;;;;3.90;99.90;;;;;;5106111;28;19946;-83
2023/03/08 13:15:38;;;;;;;;;;;3.90;99.90;;;;;;5072682;28;20023;-84
2023/03/08 13:18:10;;;;;;;;;;;3.90;99.90;;;;;;5063833;28;19946;-84
2023/03/08 13:20:39;;;;;;;;;;;3.90;99.90;;;;;;5076981;28;19929;-83
2023/03/08 13:23:14;;;;;;;;;;;3.90;99.90;;;;;;5082626;28;19945;-83
2023/03/08 13:25:53;;;;;;;;;;;3.90;99.90;;;;;;5085295;28;19925;-84
2023/03/08 13:28:20;;;;;;;;;;;3.90;99.90;;;;;;5102124;28;19935;-83
2023/03/08 13:30:56;;;;;;;;;;;4.00;99.90;;;;;;5077774;28;19924;-83
2023/03/08 13:33:23;;;;;;;;;;;3.90;99.90;;;;;;5082133;28;20027;-83
2023/03/08 13:35:56;;;;;;;;;;;3.90;99.90;;;;;;5077529;28;19924;-84
2023/03/08 13:38:23;;;;;;;;;;;3.90;99.90;;;;;;5079445;28;19931;-83
2023/03/08 13:40:49;;;;;;;;;;;4.00;99.90;;;;;;5100138;28;20386;-84
2023/03/08 13:43:15;;;;;;;;;;;4.00;99.90;;;;;;5106086;28;20013;-84
2023/03/08 13:45:45;;;;;;;;;;;4.00;99.90;;;;;;5072563;28;19929;-83
2023/03/08 13:48:11;;;;;;;;;;;4.00;99.90;;;;;;5073888;28;19932;-84
2023/03/08 13:50:40;;;;;;;;;;;4.00;99.90;;;;;;5079265;28;20371;-84
2023/03/08 13:53:07;;;;;;;;;;;4.00;99.90;;;;;;5115889;28;19942;-84
2023/03/08 13:55:34;;;;;;;;;;;4.00;99.90;;;;;;5093711;28;19939;-84
2023/03/08 13:58:01;;;;;;;;;;;4.00;99.90;;;;;;5078135;28;19936;-73
2023/03/08 14:00:30;;;;;;;;;;;4.00;99.90;;;;;;5100877;28;19928;-73
2023/03/08 14:02:59;;;;;;;;;;;4.00;99.90;;;;;;5100165;28;19943;-73
2023/03/08 14:05:26;;;;;;;;;;;4.00;99.90;;;;;;5104749;28;19975;-73
2023/03/08 14:07:56;;;;;;;;;;;4.10;99.90;;;;;;5099091;28;19924;-73
2023/03/08 14:10:26;;;;;;;;;;;4.10;99.90;;;;;;5096506;28;20018;-73
2023/03/08 14:12:52;;;;;;;;;;;4.10;99.90;;;;;;5099831;28;19928;-73
2023/03/08 14:15:18;;;;;;;;;;;4.20;99.90;;;;;;5096696;28;20498;-73
2023/03/08 14:17:44;;;;;;;;;;;4.20;99.90;;;;;;5099907;28;20010;-73
2023/03/08 14:20:18;;;;;;;;;;;4.20;99.90;;;;;;5097322;28;19945;-73
2023/03/08 14:22:46;;;;;;;;;;;4.20;99.90;;;;;;5096606;28;19924;-73
2023/03/08 14:25:25;;;;;;;;;;;4.30;99.90;;;;;;5094558;28;20023;-73